createdAt,value
2023-09-23T00:00:23.895Z,100055.44
2023-09-23T00:03:15.407Z,100062.38
2023-09-23T00:06:06.973Z,100065.94
2023-09-23T00:08:58.463Z,100065.22
2023-09-23T00:11:50.194Z,100064.38
2023-09-23T00:14:42.078Z,100066.25
2023-09-23T00:17:42.463Z,100067.25
2023-09-23T00:20:42.121Z,100066.56
2023-09-23T00:23:33.732Z,100073.53
2023-09-23T00:26:31.097Z,100074.53
2023-09-23T00:29:30.548Z,100070.13
2023-09-23T00:32:22.456Z,100075.47
2023-09-23T00:35:15.069Z,100073.72
2023-09-23T00:38:08.030Z,100074.31
2023-09-23T00:40:59.342Z,100079.50
2023-09-23T00:43:51.929Z,100083.00
2023-09-23T00:46:45.294Z,100093.91
2023-09-23T00:49:38.454Z,100111.69
2023-09-23T00:52:38.658Z,100121.25
2023-09-23T00:55:42.836Z,100127.66
2023-09-23T00:58:38.138Z,100141.78
2023-09-23T01:01:36.109Z,100154.66
2023-09-23T01:04:27.555Z,100157.09
2023-09-23T01:07:19.612Z,100156.06
2023-09-23T01:10:12.647Z,100157.19
2023-09-23T01:13:12.147Z,100153.09
2023-09-23T01:16:08.048Z,100147.63
2023-09-23T01:18:59.489Z,100141.56
2023-09-23T01:21:50.837Z,100136.38
2023-09-23T01:24:50.324Z,100151.25
2023-09-23T01:27:42.050Z,100143.28
2023-09-23T01:30:33.430Z,100144.84
2023-09-23T01:33:25.393Z,100151.75
2023-09-23T01:36:17.760Z,100158.03
2023-09-23T01:39:09.358Z,100153.81
2023-09-23T01:42:08.863Z,100144.47
2023-09-23T01:45:07.663Z,100150.06
2023-09-23T01:47:59.221Z,100149.34
2023-09-23T01:50:50.533Z,100151.19
2023-09-23T01:53:41.851Z,100148.56
2023-09-23T01:56:35.215Z,100156.53
2023-09-23T01:59:34.970Z,100147.00
2023-09-23T02:02:34.590Z,100163.66
2023-09-23T02:05:28.404Z,100159.13
2023-09-23T02:08:20.117Z,100179.06
2023-09-23T02:11:11.527Z,100180.63
2023-09-23T02:14:03.567Z,100173.00
2023-09-23T02:16:57.082Z,100152.59
2023-09-23T02:19:48.864Z,100148.41
2023-09-23T02:22:43.116Z,100149.44
2023-09-23T02:25:35.437Z,100159.50
2023-09-23T02:28:33.500Z,100151.25
2023-09-23T02:31:32.608Z,100156.38
2023-09-23T02:34:31.695Z,100168.00
2023-09-23T02:37:30.427Z,100183.03
2023-09-23T02:40:21.862Z,100185.78
2023-09-23T02:43:13.727Z,100188.69
2023-09-23T02:46:08.810Z,100193.31
2023-09-23T02:49:07.433Z,100194.09
2023-09-23T02:52:00.254Z,100196.75
2023-09-23T02:54:54.897Z,100201.16
2023-09-23T02:57:48.010Z,100209.00
2023-09-23T03:00:42.244Z,100203.66
2023-09-23T03:03:41.684Z,100209.78
2023-09-23T03:06:41.631Z,100205.63
2023-09-23T03:09:34.337Z,100200.94
2023-09-23T03:12:27.484Z,100212.16
2023-09-23T03:15:21.192Z,100213.25
2023-09-23T03:18:15.825Z,100215.84
2023-09-23T03:21:09.974Z,100216.91
2023-09-23T03:24:06.565Z,100225.16
2023-09-23T03:27:03.004Z,100230.53
2023-09-23T03:29:53.911Z,100235.19
2023-09-23T03:32:48.519Z,100235.28
2023-09-23T03:35:46.614Z,100237.00
2023-09-23T03:38:38.860Z,100233.94
2023-09-23T03:41:37.374Z,100236.38
2023-09-23T03:44:36.870Z,100244.78
2023-09-23T03:47:28.161Z,100250.09
2023-09-23T03:50:19.526Z,100252.75
2023-09-23T03:53:18.198Z,100253.19
2023-09-23T03:56:09.657Z,100259.69
2023-09-23T03:59:01.138Z,100265.16
2023-09-23T04:01:53.754Z,100260.00
2023-09-23T04:04:50.133Z,100261.66
2023-09-23T04:07:42.221Z,100277.38
2023-09-23T04:10:41.241Z,100282.66
2023-09-23T04:13:33.084Z,100290.56
2023-09-23T04:16:24.191Z,100290.50
2023-09-23T04:19:16.880Z,100294.63
2023-09-23T04:22:14.357Z,100290.78
2023-09-23T04:25:07.009Z,100295.06
2023-09-23T04:28:03.541Z,100296.78
2023-09-23T04:30:58.779Z,100291.38
2023-09-23T04:33:50.196Z,100301.56
2023-09-23T04:36:50.798Z,100312.91
2023-09-23T04:39:41.967Z,100316.59
2023-09-23T04:42:33.356Z,100323.59
2023-09-23T04:45:31.277Z,100328.63
2023-09-23T04:48:32.139Z,100331.22
2023-09-23T04:51:23.264Z,100341.56
2023-09-23T04:54:15.918Z,100355.16
2023-09-23T04:57:07.905Z,100341.19
2023-09-23T04:59:59.264Z,100349.69
2023-09-23T05:02:51.253Z,100354.75
2023-09-23T05:05:43.215Z,100362.75
2023-09-23T05:08:41.588Z,100361.88
2023-09-23T05:11:34.382Z,100366.41
2023-09-23T05:14:26.522Z,100369.31
2023-09-23T05:17:18.289Z,100369.97
2023-09-23T05:20:14.995Z,100373.41
2023-09-23T05:23:07.111Z,100382.09
2023-09-23T05:25:59.319Z,100382.78
2023-09-23T05:28:52.089Z,100385.59
2023-09-23T05:31:43.197Z,100386.25
2023-09-23T05:34:41.367Z,100399.16
2023-09-23T05:37:40.622Z,100401.69
2023-09-23T05:40:31.912Z,100410.59
2023-09-23T05:43:29.170Z,100417.53
2023-09-23T05:46:21.931Z,100424.47
2023-09-23T05:49:14.433Z,100422.97
2023-09-23T05:52:09.449Z,100424.47
2023-09-23T05:55:00.640Z,100431.13
2023-09-23T05:57:51.910Z,100436.56
2023-09-23T06:00:43.280Z,100442.63
2023-09-23T06:03:36.323Z,100441.66
2023-09-23T06:06:27.671Z,100449.69
2023-09-23T06:09:19.940Z,100457.63
2023-09-23T06:12:10.856Z,100457.25
2023-09-23T06:15:02.811Z,100464.22
2023-09-23T06:17:54.033Z,100462.31
2023-09-23T06:20:46.806Z,100475.09
2023-09-23T06:23:37.993Z,100469.56
2023-09-23T06:26:29.258Z,100478.31
2023-09-23T06:29:20.454Z,100487.81
2023-09-23T06:32:12.316Z,100479.41
2023-09-23T06:35:03.716Z,100492.19
2023-09-23T06:37:59.387Z,100493.84
2023-09-23T06:40:56.722Z,100499.22
2023-09-23T06:43:48.681Z,100506.88
2023-09-23T06:46:46.522Z,100512.75
2023-09-23T06:49:37.868Z,100516.69
2023-09-23T06:52:29.058Z,100514.28
2023-09-23T06:55:21.627Z,100520.03
2023-09-23T06:58:19.337Z,100516.84
2023-09-23T07:01:14.213Z,100510.59
2023-09-23T07:04:07.281Z,100507.44
2023-09-23T07:06:58.516Z,100516.06
2023-09-23T07:09:50.019Z,100513.38
2023-09-23T07:12:42.642Z,100524.44
2023-09-23T07:15:41.326Z,100529.63
2023-09-23T07:18:39.404Z,100531.47
2023-09-23T07:21:31.202Z,100533.84
2023-09-23T07:24:22.334Z,100531.16
2023-09-23T07:27:20.337Z,100529.28
2023-09-23T07:30:15.017Z,100535.84
2023-09-23T07:33:07.651Z,100539.75
2023-09-23T07:35:58.678Z,100545.28
2023-09-23T07:38:50.135Z,100547.63
2023-09-23T07:41:41.552Z,100555.22
2023-09-23T07:44:32.794Z,100549.50
2023-09-23T07:47:31.766Z,100563.81
2023-09-23T07:50:30.558Z,100565.22
2023-09-23T07:53:22.427Z,100561.56
2023-09-23T07:56:13.800Z,100569.94
2023-09-23T07:59:05.628Z,100582.59
2023-09-23T08:02:03.550Z,100582.13
2023-09-23T08:04:57.001Z,100595.50
2023-09-23T08:07:48.249Z,100596.53
2023-09-23T08:10:46.335Z,100602.16
2023-09-23T08:13:44.451Z,100608.69
2023-09-23T08:16:36.093Z,100602.22
2023-09-23T08:19:27.511Z,100614.06
2023-09-23T08:22:20.191Z,100614.16
2023-09-23T08:25:11.443Z,100618.72
2023-09-23T08:28:04.038Z,100611.31
2023-09-23T08:31:01.572Z,100617.72
2023-09-23T08:33:59.750Z,100624.09
2023-09-23T08:36:50.732Z,100635.47
2023-09-23T08:39:43.852Z,100641.59
2023-09-23T08:42:41.293Z,100640.44
2023-09-23T08:45:33.019Z,100647.53
2023-09-23T08:48:31.315Z,100649.59
2023-09-23T08:51:29.746Z,100646.59
2023-09-23T08:54:26.535Z,100658.25
2023-09-23T08:57:26.047Z,100660.03
2023-09-23T09:00:24.596Z,100677.03
2023-09-23T09:03:15.843Z,100674.88
2023-09-23T09:06:17.029Z,100669.03
2023-09-23T09:09:08.800Z,100669.75
2023-09-23T09:12:00.658Z,100676.47
2023-09-23T09:14:59.970Z,100676.69
2023-09-23T09:17:59.195Z,100683.44
2023-09-23T09:20:50.238Z,100686.09
2023-09-23T09:23:41.624Z,100689.19
2023-09-23T09:26:33.273Z,100695.97
2023-09-23T09:29:25.613Z,100696.81
2023-09-23T09:32:20.176Z,100695.97
2023-09-23T09:35:19.764Z,100701.56
2023-09-23T09:38:18.954Z,100703.06
2023-09-23T09:41:12.541Z,100712.38
2023-09-23T09:44:05.456Z,100702.53
2023-09-23T09:47:04.466Z,100712.97
2023-09-23T09:49:59.420Z,100721.28
2023-09-23T09:52:50.489Z,100716.75
2023-09-23T09:55:42.544Z,100710.78
2023-09-23T09:58:38.852Z,100726.28
2023-09-23T10:01:36.765Z,100718.19
2023-09-23T10:04:35.116Z,100725.94
2023-09-23T10:07:47.224Z,100730.00
2023-09-23T10:10:40.424Z,100727.72
2023-09-23T10:13:38.530Z,100737.34
2023-09-23T10:16:37.355Z,100733.91
2023-09-23T10:19:32.567Z,100734.00
2023-09-23T10:22:25.120Z,100732.66
2023-09-23T10:25:22.957Z,100738.13
2023-09-23T10:28:23.963Z,100743.72
2023-09-23T10:31:16.755Z,100737.00
2023-09-23T10:34:11.178Z,100744.59
2023-09-23T10:37:02.199Z,100743.84
2023-09-23T10:39:53.565Z,100743.78
2023-09-23T10:42:51.904Z,100745.06
2023-09-23T10:45:44.417Z,100748.75
2023-09-23T10:48:43.083Z,100756.78
2023-09-23T10:51:40.730Z,100755.22
2023-09-23T10:54:32.386Z,100766.66
2023-09-23T10:57:24.414Z,100761.13
2023-09-23T11:00:18.166Z,100755.84
2023-09-23T11:03:12.795Z,100758.81
2023-09-23T11:06:10.521Z,100761.84
2023-09-23T11:09:01.526Z,100756.63
2023-09-23T11:12:07.397Z,100759.47
2023-09-23T11:15:00.040Z,100769.09
2023-09-23T11:17:55.132Z,100776.16
2023-09-23T11:20:48.699Z,100789.34
2023-09-23T11:23:40.502Z,100776.47
2023-09-23T11:26:32.595Z,100788.44
2023-09-23T11:29:30.982Z,100796.25
2023-09-23T11:32:23.408Z,100804.00
2023-09-23T11:35:15.695Z,100816.34
2023-09-23T11:38:15.234Z,100822.38
2023-09-23T11:41:06.720Z,100818.97
2023-09-23T11:44:04.883Z,100828.88
2023-09-23T11:46:56.323Z,100822.88
2023-09-23T11:49:49.248Z,100824.72
2023-09-23T11:52:46.626Z,100829.94
2023-09-23T11:55:39.752Z,100825.78
2023-09-23T11:58:37.433Z,100833.34
2023-09-23T12:01:28.921Z,100838.66
2023-09-23T12:04:20.597Z,100838.44
2023-09-23T12:07:19.114Z,100833.88
2023-09-23T12:10:10.821Z,100840.53
2023-09-23T12:13:09.924Z,100844.47
2023-09-23T12:16:01.269Z,100847.66
2023-09-23T12:18:52.566Z,100859.41
2023-09-23T12:21:43.938Z,100860.88
2023-09-23T12:24:36.452Z,100862.38
2023-09-23T12:27:28.913Z,100871.31
2023-09-23T12:30:28.061Z,100872.78
2023-09-23T12:33:19.377Z,100871.16
2023-09-23T12:36:11.299Z,100869.13
2023-09-23T12:39:07.836Z,100872.50
2023-09-23T12:41:59.885Z,100873.56
2023-09-23T12:44:57.473Z,100878.31
2023-09-23T12:47:57.416Z,100878.19
2023-09-23T12:50:55.821Z,100889.19
2023-09-23T12:53:53.440Z,100883.38
2023-09-23T12:56:44.632Z,100885.78
2023-09-23T12:59:42.275Z,100875.13
2023-09-23T13:02:39.825Z,100880.88
2023-09-23T13:05:32.766Z,100889.13
2023-09-23T13:08:30.706Z,100880.75
2023-09-23T13:11:28.807Z,100887.44
2023-09-23T13:14:22.396Z,100889.88
2023-09-23T13:17:14.306Z,100895.53
2023-09-23T13:20:07.345Z,100903.00
2023-09-23T13:23:03.985Z,100900.38
2023-09-23T13:26:01.891Z,100908.16
2023-09-23T13:28:59.513Z,100905.72
2023-09-23T13:31:57.637Z,100909.97
2023-09-23T13:34:49.928Z,100902.72
2023-09-23T13:37:41.153Z,100906.66
2023-09-23T13:40:34.948Z,100911.03
2023-09-23T13:43:26.170Z,100920.31
2023-09-23T13:46:23.546Z,100906.22
2023-09-23T13:49:21.506Z,100924.59
2023-09-23T13:52:12.732Z,100918.06
2023-09-23T13:55:07.310Z,100914.91
2023-09-23T13:58:08.290Z,100922.31
2023-09-23T14:00:59.643Z,100913.47
2023-09-23T14:03:51.779Z,100930.44
2023-09-23T14:06:43.101Z,100933.56
2023-09-23T14:09:34.990Z,100931.25
2023-09-23T14:12:32.946Z,100933.47
2023-09-23T14:15:32.618Z,100936.38
2023-09-23T14:18:24.395Z,100928.72
2023-09-23T14:21:15.836Z,100931.59
2023-09-23T14:24:08.147Z,100932.72
2023-09-23T14:27:05.940Z,100933.59
2023-09-23T14:29:57.059Z,100941.56
2023-09-23T14:32:50.845Z,100945.38
2023-09-23T14:35:42.138Z,100954.31
2023-09-23T14:38:33.535Z,100954.25
2023-09-23T14:41:33.923Z,100957.50
2023-09-23T14:44:31.754Z,100950.41
2023-09-23T14:47:23.378Z,100952.19
2023-09-23T14:50:16.084Z,100949.25
2023-09-23T14:53:13.602Z,100960.78
2023-09-23T14:56:05.169Z,100963.47
2023-09-23T14:59:02.891Z,100973.00
2023-09-23T15:02:00.493Z,100977.31
2023-09-23T15:04:53.039Z,100986.06
2023-09-23T15:07:46.086Z,100985.91
2023-09-23T15:10:37.841Z,100996.59
2023-09-23T15:13:35.553Z,100996.38
2023-09-23T15:16:27.133Z,100997.22
2023-09-23T15:19:19.427Z,100997.91
2023-09-23T15:22:11.585Z,101005.72
2023-09-23T15:25:04.268Z,101008.19
2023-09-23T15:27:55.288Z,101014.22
2023-09-23T15:30:47.804Z,101021.53
2023-09-23T15:33:38.944Z,101023.00
2023-09-23T15:36:30.662Z,101027.16
2023-09-23T15:39:21.849Z,101039.38
2023-09-23T15:42:21.976Z,101037.50
2023-09-23T15:45:15.086Z,101037.88
2023-09-23T15:48:06.807Z,101041.75
2023-09-23T15:51:09.994Z,101047.09
2023-09-23T15:54:00.981Z,101054.84
2023-09-23T15:56:53.610Z,101058.94
2023-09-23T15:59:52.804Z,101074.56
2023-09-23T16:02:44.210Z,101082.50
2023-09-23T16:05:35.562Z,101086.88
2023-09-23T16:08:33.607Z,101106.81
2023-09-23T16:11:24.992Z,101120.31
2023-09-23T16:14:16.015Z,101119.22
2023-09-23T16:17:09.037Z,101146.78
2023-09-23T16:20:00.794Z,101146.00
2023-09-23T16:22:52.619Z,101158.25
2023-09-23T16:25:43.902Z,101159.69
2023-09-23T16:28:35.338Z,101174.53
2023-09-23T16:31:26.872Z,101172.75
2023-09-23T16:34:19.080Z,101183.44
2023-09-23T16:37:16.789Z,101182.88
2023-09-23T16:40:10.084Z,101194.69
2023-09-23T16:43:01.943Z,101205.53
2023-09-23T16:45:59.578Z,101201.72
2023-09-23T16:48:50.998Z,101200.75
2023-09-23T16:51:43.537Z,101204.66
2023-09-23T16:54:34.665Z,101207.63
2023-09-23T16:57:26.561Z,101200.66
2023-09-23T17:00:18.060Z,101210.59
2023-09-23T17:03:09.960Z,101208.88
2023-09-23T17:06:08.376Z,101220.84
2023-09-23T17:09:08.018Z,101217.94
2023-09-23T17:12:06.310Z,101219.66
2023-09-23T17:15:03.775Z,101223.25
2023-09-23T17:18:02.451Z,101225.25
2023-09-23T17:21:00.774Z,101219.19
2023-09-23T17:23:58.904Z,101227.88
2023-09-23T17:26:51.333Z,101236.63
2023-09-23T17:29:42.806Z,101235.00
2023-09-23T17:32:34.136Z,101234.91
2023-09-23T17:35:25.381Z,101239.06
2023-09-23T17:38:16.591Z,101236.34
2023-09-23T17:41:08.806Z,101237.44
2023-09-23T17:44:01.764Z,101246.09
2023-09-23T17:46:52.981Z,101255.69
2023-09-23T17:49:44.660Z,101260.22
2023-09-23T17:52:36.093Z,101270.69
2023-09-23T17:55:27.833Z,101265.44
2023-09-23T17:58:25.990Z,101274.75
2023-09-23T18:01:18.796Z,101276.53
2023-09-23T18:04:11.214Z,101293.09
2023-09-23T18:07:09.064Z,101292.47
2023-09-23T18:10:07.433Z,101302.19
2023-09-23T18:12:58.780Z,101300.41
2023-09-23T18:15:50.287Z,101302.28
2023-09-23T18:18:47.065Z,101302.34
2023-09-23T18:21:39.774Z,101306.53
2023-09-23T18:24:39.224Z,101312.31
2023-09-23T18:27:30.883Z,101314.84
2023-09-23T18:30:21.999Z,101308.72
2023-09-23T18:33:13.470Z,101318.44
2023-09-23T18:36:06.774Z,101317.63
2023-09-23T18:38:58.064Z,101325.41
2023-09-23T18:41:49.374Z,101328.22
2023-09-23T18:44:40.928Z,101330.19
2023-09-23T18:47:32.284Z,101338.78
2023-09-23T18:50:23.245Z,101355.88
2023-09-23T18:53:16.440Z,101355.16
2023-09-23T18:56:07.855Z,101366.28
2023-09-23T18:58:59.574Z,101372.19
2023-09-23T19:01:55.933Z,101368.66
2023-09-23T19:04:55.002Z,101370.13
2023-09-23T19:07:46.592Z,101375.25
2023-09-23T19:10:39.347Z,101382.13
2023-09-23T19:13:38.248Z,101390.72
2023-09-23T19:16:29.684Z,101397.09
2023-09-23T19:19:20.944Z,101388.47
2023-09-23T19:22:15.860Z,101390.28
2023-09-23T19:25:08.933Z,101392.88
2023-09-23T19:28:08.686Z,101395.66
2023-09-23T19:31:00.069Z,101399.13
2023-09-23T19:33:57.991Z,101408.50
2023-09-23T19:36:49.402Z,101408.41
2023-09-23T19:39:42.821Z,101410.22
2023-09-23T19:42:34.298Z,101415.38
2023-09-23T19:45:27.573Z,101420.69
2023-09-23T19:48:18.731Z,101424.94
2023-09-23T19:51:17.052Z,101438.41
2023-09-23T19:54:10.184Z,101439.13
2023-09-23T19:57:01.796Z,101444.53
2023-09-23T19:59:54.831Z,101451.59
2023-09-23T20:02:48.746Z,101452.00
2023-09-23T20:05:42.173Z,101462.97
2023-09-23T20:08:33.713Z,101454.72
2023-09-23T20:11:28.045Z,101445.72
2023-09-23T20:14:19.615Z,101464.06
2023-09-23T20:17:12.350Z,101463.97
2023-09-23T20:20:09.972Z,101465.22
2023-09-23T20:23:03.404Z,101463.41
2023-09-23T20:26:00.998Z,101470.44
2023-09-23T20:28:59.171Z,101470.59
2023-09-23T20:31:50.951Z,101466.25
2023-09-23T20:34:44.213Z,101483.69
2023-09-23T20:37:38.293Z,101482.94
2023-09-23T20:40:29.960Z,101485.75
2023-09-23T20:43:21.338Z,101486.47
2023-09-23T20:46:12.895Z,101493.97
2023-09-23T20:49:06.753Z,101497.25
2023-09-23T20:51:58.201Z,101500.66
2023-09-23T20:54:57.360Z,101504.88
2023-09-23T20:57:48.799Z,101509.06
2023-09-23T21:00:40.425Z,101506.16
2023-09-23T21:03:31.736Z,101511.59
2023-09-23T21:06:23.507Z,101519.25
2023-09-23T21:09:16.825Z,101515.66
2023-09-23T21:12:09.812Z,101527.13
2023-09-23T21:15:08.563Z,101522.69
2023-09-23T21:18:02.236Z,101528.56
2023-09-23T21:20:55.498Z,101537.50
2023-09-23T21:23:54.828Z,101547.25
2023-09-23T21:26:46.317Z,101540.13
2023-09-23T21:29:45.392Z,101547.63
2023-09-23T21:32:36.650Z,101555.47
2023-09-23T21:35:35.477Z,101559.72
2023-09-23T21:38:26.924Z,101562.03
2023-09-23T21:41:18.219Z,101570.09
2023-09-23T21:44:15.860Z,101571.59
2023-09-23T21:47:09.870Z,101583.19
2023-09-23T21:50:03.134Z,101598.06
2023-09-23T21:52:54.537Z,101588.28
2023-09-23T21:55:45.884Z,101588.13
2023-09-23T21:58:37.250Z,101584.41
2023-09-23T22:01:28.948Z,101586.84
2023-09-23T22:04:21.596Z,101589.09
2023-09-23T22:07:20.091Z,101595.22
2023-09-23T22:10:12.172Z,101606.69
2023-09-23T22:13:03.308Z,101605.97
2023-09-23T22:15:54.513Z,101603.38
2023-09-23T22:18:46.807Z,101601.56
2023-09-23T22:21:41.283Z,101609.50
2023-09-23T22:24:32.957Z,101613.75
2023-09-23T22:27:27.007Z,101620.69
2023-09-23T22:30:26.910Z,101617.97
2023-09-23T22:33:19.005Z,101629.16
2023-09-23T22:36:12.141Z,101629.75
2023-09-23T22:39:13.706Z,101629.06
2023-09-23T22:42:05.248Z,101639.53
2023-09-23T22:44:56.562Z,101640.44
2023-09-23T22:47:48.372Z,101643.25
2023-09-23T22:50:42.687Z,101646.84
2023-09-23T22:53:33.985Z,101648.56
2023-09-23T22:56:26.843Z,101651.00
2023-09-23T22:59:28.189Z,101660.56
2023-09-23T23:02:19.832Z,101661.38
2023-09-23T23:05:12.210Z,101664.91
2023-09-23T23:08:10.071Z,101667.69
2023-09-23T23:11:01.128Z,101672.41
2023-09-23T23:14:00.388Z,101672.41
2023-09-23T23:16:58.186Z,101673.13
2023-09-23T23:19:49.587Z,101671.13
2023-09-23T23:22:46.991Z,101677.06
2023-09-23T23:25:44.856Z,101675.94
2023-09-23T23:28:37.053Z,101680.72
2023-09-23T23:31:29.855Z,101686.84
2023-09-23T23:34:24.874Z,101687.03
2023-09-23T23:37:16.193Z,101692.09
2023-09-23T23:40:08.619Z,101690.91
2023-09-23T23:43:01.428Z,101700.47
2023-09-23T23:45:59.676Z,101712.63
2023-09-23T23:48:52.680Z,101703.69
2023-09-23T23:51:45.737Z,101712.34
2023-09-23T23:54:45.466Z,101713.97
2023-09-23T23:57:36.683Z,101725.19
